Terminal Aerodrome Forecast
Issued by NWS

Home | Current Version | Previous Version | Text Only | Print | Product List | Glossary On
Versions: 1 2 3 4 5 6 7 8 9 10 11 12 13
000
FTUS45 KLKN 231720
TAFEKO
TAF
KEKO 231720Z 2318/2418 26015G25KT P6SM SCT100 BKN200
     FM240300 27006KT P6SM SCT100 BKN200
     FM241300 22011KT 6SM -RA OVC035=

USA.gov is the U.S. government's official web portal to all federal, state and local government web resources and services.